sensor_id;sensor_type;location;lat;lon;timestamp;temperature;humidity
20728;DHT22;10525;50.154;8.198;2022-12-07T00:01:06;2.10;99.90
20728;DHT22;10525;50.154;8.198;2022-12-07T00:03:33;2.20;99.90
20728;DHT22;10525;50.154;8.198;2022-12-07T00:06:01;2.20;99.90
20728;DHT22;10525;50.154;8.198;2022-12-07T00:08:29;2.20;99.90
20728;DHT22;10525;50.154;8.198;2022-12-07T00:11:00;2.20;99.90
20728;DHT22;10525;50.154;8.198;2022-12-07T00:13:27;2.30;99.90
20728;DHT22;10525;50.154;8.198;2022-12-07T00:15:54;2.20;99.90
20728;DHT22;10525;50.154;8.198;2022-12-07T00:18:22;2.30;99.90
20728;DHT22;10525;50.154;8.198;2022-12-07T00:20:48;2.20;99.90
20728;DHT22;10525;50.154;8.198;2022-12-07T00:23:15;2.20;99.90
20728;DHT22;10525;50.154;8.198;2022-12-07T00:25:42;2.20;99.90
20728;DHT22;10525;50.154;8.198;2022-12-07T00:28:08;2.10;99.90
20728;DHT22;10525;50.154;8.198;2022-12-07T00:30:36;2.10;99.90
20728;DHT22;10525;50.154;8.198;2022-12-07T00:33:02;2.00;99.90
20728;DHT22;10525;50.154;8.198;2022-12-07T00:35:30;2.00;99.90
20728;DHT22;10525;50.154;8.198;2022-12-07T00:37:57;1.90;99.90
20728;DHT22;10525;50.154;8.198;2022-12-07T00:40:24;1.80;99.90
20728;DHT22;10525;50.154;8.198;2022-12-07T00:42:51;1.80;99.90
20728;DHT22;10525;50.154;8.198;2022-12-07T00:45:17;1.80;99.90
20728;DHT22;10525;50.154;8.198;2022-12-07T00:47:44;1.80;99.90
20728;DHT22;10525;50.154;8.198;2022-12-07T00:50:11;1.80;99.90
20728;DHT22;10525;50.154;8.198;2022-12-07T00:52:39;1.80;99.90
20728;DHT22;10525;50.154;8.198;2022-12-07T00:55:06;1.80;99.90
20728;DHT22;10525;50.154;8.198;2022-12-07T00:57:33;1.80;99.90
20728;DHT22;10525;50.154;8.198;2022-12-07T00:59:59;1.90;99.90
20728;DHT22;10525;50.154;8.198;2022-12-07T01:02:26;1.90;99.90
20728;DHT22;10525;50.154;8.198;2022-12-07T01:04:53;1.90;99.90
20728;DHT22;10525;50.154;8.198;2022-12-07T01:07:19;2.00;99.90
20728;DHT22;10525;50.154;8.198;2022-12-07T01:09:47;2.00;99.90
20728;DHT22;10525;50.154;8.198;2022-12-07T01:12:14;2.00;99.90
20728;DHT22;10525;50.154;8.198;2022-12-07T01:14:41;2.10;99.90
20728;DHT22;10525;50.154;8.198;2022-12-07T01:17:08;2.10;99.90
20728;DHT22;10525;50.154;8.198;2022-12-07T01:19:35;2.10;99.90
20728;DHT22;10525;50.154;8.198;2022-12-07T01:22:01;2.00;99.90
20728;DHT22;10525;50.154;8.198;2022-12-07T01:24:28;2.10;99.90
20728;DHT22;10525;50.154;8.198;2022-12-07T01:26:56;2.10;99.90
20728;DHT22;10525;50.154;8.198;2022-12-07T01:29:23;2.10;99.90
20728;DHT22;10525;50.154;8.198;2022-12-07T01:31:49;2.10;99.90
20728;DHT22;10525;50.154;8.198;2022-12-07T01:34:16;2.20;99.90
20728;DHT22;10525;50.154;8.198;2022-12-07T01:36:43;2.20;99.90
20728;DHT22;10525;50.154;8.198;2022-12-07T01:39:10;2.20;99.90
20728;DHT22;10525;50.154;8.198;2022-12-07T01:41:38;2.30;99.90
20728;DHT22;10525;50.154;8.198;2022-12-07T01:44:13;2.30;99.90
20728;DHT22;10525;50.154;8.198;2022-12-07T01:46:42;2.30;99.90
20728;DHT22;10525;50.154;8.198;2022-12-07T01:49:12;2.30;99.90
20728;DHT22;10525;50.154;8.198;2022-12-07T01:51:42;2.30;99.90
20728;DHT22;10525;50.154;8.198;2022-12-07T01:54:11;2.30;99.90
20728;DHT22;10525;50.154;8.198;2022-12-07T01:56:41;2.30;99.90
20728;DHT22;10525;50.154;8.198;2022-12-07T01:59:10;2.30;99.90
20728;DHT22;10525;50.154;8.198;2022-12-07T02:01:37;2.30;99.90
20728;DHT22;10525;50.154;8.198;2022-12-07T02:04:04;2.40;99.90
20728;DHT22;10525;50.154;8.198;2022-12-07T02:06:32;2.40;99.90
20728;DHT22;10525;50.154;8.198;2022-12-07T02:08:59;2.40;99.90
20728;DHT22;10525;50.154;8.198;2022-12-07T02:11:26;2.50;99.90
20728;DHT22;10525;50.154;8.198;2022-12-07T02:13:53;2.50;99.90
20728;DHT22;10525;50.154;8.198;2022-12-07T02:16:27;2.50;99.90
20728;DHT22;10525;50.154;8.198;2022-12-07T02:19:14;2.50;99.90
20728;DHT22;10525;50.154;8.198;2022-12-07T02:21:52;2.50;99.90
20728;DHT22;10525;50.154;8.198;2022-12-07T02:24:45;2.40;99.90
20728;DHT22;10525;50.154;8.198;2022-12-07T02:27:36;2.50;99.90
20728;DHT22;10525;50.154;8.198;2022-12-07T02:30:06;2.40;99.90
20728;DHT22;10525;50.154;8.198;2022-12-07T02:32:44;2.50;99.90
20728;DHT22;10525;50.154;8.198;2022-12-07T02:35:17;2.50;99.90
20728;DHT22;10525;50.154;8.198;2022-12-07T02:37:54;2.60;99.90
20728;DHT22;10525;50.154;8.198;2022-12-07T02:40:28;2.50;99.90
20728;DHT22;10525;50.154;8.198;2022-12-07T02:43:01;2.50;99.90
20728;DHT22;10525;50.154;8.198;2022-12-07T02:45:34;2.50;99.90
20728;DHT22;10525;50.154;8.198;2022-12-07T02:48:02;2.50;99.90
20728;DHT22;10525;50.154;8.198;2022-12-07T02:50:29;2.50;99.90
20728;DHT22;10525;50.154;8.198;2022-12-07T02:52:56;2.50;99.90
20728;DHT22;10525;50.154;8.198;2022-12-07T02:55:28;2.50;99.90
20728;DHT22;10525;50.154;8.198;2022-12-07T02:58:08;2.50;99.90
20728;DHT22;10525;50.154;8.198;2022-12-07T03:00:48;2.60;99.90
20728;DHT22;10525;50.154;8.198;2022-12-07T03:03:18;2.40;99.90
20728;DHT22;10525;50.154;8.198;2022-12-07T03:06:07;2.50;99.90
20728;DHT22;10525;50.154;8.198;2022-12-07T03:08:46;2.50;99.90
20728;DHT22;10525;50.154;8.198;2022-12-07T03:11:17;2.60;99.90
20728;DHT22;10525;50.154;8.198;2022-12-07T03:13:50;2.50;99.90
20728;DHT22;10525;50.154;8.198;2022-12-07T03:16:21;2.60;99.90
20728;DHT22;10525;50.154;8.198;2022-12-07T03:18:52;2.50;99.90
20728;DHT22;10525;50.154;8.198;2022-12-07T03:21:22;2.60;99.90
20728;DHT22;10525;50.154;8.198;2022-12-07T03:23:52;2.60;99.90
20728;DHT22;10525;50.154;8.198;2022-12-07T03:26:21;2.60;99.90
20728;DHT22;10525;50.154;8.198;2022-12-07T03:28:53;2.60;99.90
20728;DHT22;10525;50.154;8.198;2022-12-07T03:31:24;2.50;99.90
20728;DHT22;10525;50.154;8.198;2022-12-07T03:33:58;2.50;99.90
20728;DHT22;10525;50.154;8.198;2022-12-07T03:36:29;2.50;99.90
20728;DHT22;10525;50.154;8.198;2022-12-07T03:39:02;2.50;99.90
20728;DHT22;10525;50.154;8.198;2022-12-07T03:41:32;2.60;99.90
20728;DHT22;10525;50.154;8.198;2022-12-07T03:44:00;2.60;99.90
20728;DHT22;10525;50.154;8.198;2022-12-07T03:46:34;2.60;99.90
20728;DHT22;10525;50.154;8.198;2022-12-07T03:49:07;2.60;99.90
20728;DHT22;10525;50.154;8.198;2022-12-07T03:51:40;2.60;99.90
20728;DHT22;10525;50.154;8.198;2022-12-07T03:54:13;2.60;99.90
20728;DHT22;10525;50.154;8.198;2022-12-07T03:56:42;2.60;99.90
20728;DHT22;10525;50.154;8.198;2022-12-07T03:59:10;2.60;99.90
20728;DHT22;10525;50.154;8.198;2022-12-07T04:01:41;2.60;99.90
20728;DHT22;10525;50.154;8.198;2022-12-07T04:04:08;2.70;99.90
20728;DHT22;10525;50.154;8.198;2022-12-07T04:06:35;2.70;99.90
20728;DHT22;10525;50.154;8.198;2022-12-07T04:09:02;2.70;99.90
20728;DHT22;10525;50.154;8.198;2022-12-07T04:11:29;2.80;99.90
20728;DHT22;10525;50.154;8.198;2022-12-07T04:13:55;2.80;99.90
20728;DHT22;10525;50.154;8.198;2022-12-07T04:16:40;2.70;99.90
20728;DHT22;10525;50.154;8.198;2022-12-07T04:19:07;2.70;99.90
20728;DHT22;10525;50.154;8.198;2022-12-07T04:21:34;2.70;99.90
20728;DHT22;10525;50.154;8.198;2022-12-07T04:24:01;2.70;99.90
20728;DHT22;10525;50.154;8.198;2022-12-07T04:26:28;2.80;99.90
20728;DHT22;10525;50.154;8.198;2022-12-07T04:28:54;2.70;99.90
20728;DHT22;10525;50.154;8.198;2022-12-07T04:31:21;2.70;99.90
20728;DHT22;10525;50.154;8.198;2022-12-07T04:33:49;2.80;99.90
20728;DHT22;10525;50.154;8.198;2022-12-07T04:36:16;2.70;99.90
20728;DHT22;10525;50.154;8.198;2022-12-07T04:38:45;2.80;99.90
20728;DHT22;10525;50.154;8.198;2022-12-07T04:41:11;2.90;99.90
20728;DHT22;10525;50.154;8.198;2022-12-07T04:43:38;2.80;99.90
20728;DHT22;10525;50.154;8.198;2022-12-07T04:46:05;2.90;99.90
20728;DHT22;10525;50.154;8.198;2022-12-07T04:48:32;3.00;99.90
20728;DHT22;10525;50.154;8.198;2022-12-07T04:51:02;2.90;99.90
20728;DHT22;10525;50.154;8.198;2022-12-07T04:53:29;2.90;99.90
20728;DHT22;10525;50.154;8.198;2022-12-07T04:55:55;3.00;99.90
20728;DHT22;10525;50.154;8.198;2022-12-07T04:58:22;3.00;99.90
20728;DHT22;10525;50.154;8.198;2022-12-07T05:00:49;3.10;99.90
20728;DHT22;10525;50.154;8.198;2022-12-07T05:03:15;3.00;99.90
20728;DHT22;10525;50.154;8.198;2022-12-07T05:05:42;3.00;99.90
20728;DHT22;10525;50.154;8.198;2022-12-07T05:08:10;3.00;99.90
20728;DHT22;10525;50.154;8.198;2022-12-07T05:10:37;3.00;99.90
20728;DHT22;10525;50.154;8.198;2022-12-07T05:13:03;3.00;99.90
20728;DHT22;10525;50.154;8.198;2022-12-07T05:15:30;3.10;99.90
20728;DHT22;10525;50.154;8.198;2022-12-07T05:17:57;3.10;99.90
20728;DHT22;10525;50.154;8.198;2022-12-07T05:20:23;3.10;99.90
20728;DHT22;10525;50.154;8.198;2022-12-07T05:22:50;3.10;99.90
20728;DHT22;10525;50.154;8.198;2022-12-07T05:25:18;3.10;99.90
20728;DHT22;10525;50.154;8.198;2022-12-07T05:27:45;3.20;99.90
20728;DHT22;10525;50.154;8.198;2022-12-07T05:30:12;3.10;99.90
20728;DHT22;10525;50.154;8.198;2022-12-07T05:32:39;3.10;99.90
20728;DHT22;10525;50.154;8.198;2022-12-07T05:35:07;3.10;99.90
20728;DHT22;10525;50.154;8.198;2022-12-07T05:37:33;3.10;99.90
20728;DHT22;10525;50.154;8.198;2022-12-07T05:40:00;3.10;99.90
20728;DHT22;10525;50.154;8.198;2022-12-07T05:42:28;3.10;99.90
20728;DHT22;10525;50.154;8.198;2022-12-07T05:44:55;3.10;99.90
20728;DHT22;10525;50.154;8.198;2022-12-07T05:47:21;3.10;99.90
20728;DHT22;10525;50.154;8.198;2022-12-07T05:49:48;3.20;99.90
20728;DHT22;10525;50.154;8.198;2022-12-07T05:52:15;3.10;99.90
20728;DHT22;10525;50.154;8.198;2022-12-07T05:54:42;3.20;99.90
20728;DHT22;10525;50.154;8.198;2022-12-07T05:57:08;3.10;99.90
20728;DHT22;10525;50.154;8.198;2022-12-07T05:59:37;3.10;99.90
20728;DHT22;10525;50.154;8.198;2022-12-07T06:02:04;3.10;99.90
20728;DHT22;10525;50.154;8.198;2022-12-07T06:04:33;3.10;99.90
20728;DHT22;10525;50.154;8.198;2022-12-07T06:06:59;3.10;99.90
20728;DHT22;10525;50.154;8.198;2022-12-07T06:09:27;3.10;99.90
20728;DHT22;10525;50.154;8.198;2022-12-07T06:11:55;3.10;99.90
20728;DHT22;10525;50.154;8.198;2022-12-07T06:14:41;3.10;99.90
20728;DHT22;10525;50.154;8.198;2022-12-07T06:17:08;3.10;99.90
20728;DHT22;10525;50.154;8.198;2022-12-07T06:19:35;3.10;99.90
20728;DHT22;10525;50.154;8.198;2022-12-07T06:22:02;3.10;99.90
20728;DHT22;10525;50.154;8.198;2022-12-07T06:24:30;3.10;99.90
20728;DHT22;10525;50.154;8.198;2022-12-07T06:26:57;3.10;99.90
20728;DHT22;10525;50.154;8.198;2022-12-07T06:29:24;3.20;99.90
20728;DHT22;10525;50.154;8.198;2022-12-07T06:31:52;3.10;99.90
20728;DHT22;10525;50.154;8.198;2022-12-07T06:34:20;3.10;99.90
20728;DHT22;10525;50.154;8.198;2022-12-07T06:36:48;3.10;99.90
20728;DHT22;10525;50.154;8.198;2022-12-07T06:39:17;3.10;99.90
20728;DHT22;10525;50.154;8.198;2022-12-07T06:41:44;3.10;99.90
20728;DHT22;10525;50.154;8.198;2022-12-07T06:44:11;3.00;99.90
20728;DHT22;10525;50.154;8.198;2022-12-07T06:46:38;3.10;99.90
20728;DHT22;10525;50.154;8.198;2022-12-07T06:49:06;3.00;99.90
20728;DHT22;10525;50.154;8.198;2022-12-07T06:51:33;3.00;99.90
20728;DHT22;10525;50.154;8.198;2022-12-07T06:54:02;3.00;99.90
20728;DHT22;10525;50.154;8.198;2022-12-07T06:56:28;3.00;99.90
20728;DHT22;10525;50.154;8.198;2022-12-07T06:58:55;3.10;99.90
20728;DHT22;10525;50.154;8.198;2022-12-07T07:01:22;3.00;99.90
20728;DHT22;10525;50.154;8.198;2022-12-07T07:03:48;2.90;99.90
20728;DHT22;10525;50.154;8.198;2022-12-07T07:06:16;2.80;99.90
20728;DHT22;10525;50.154;8.198;2022-12-07T07:08:43;2.80;99.90
20728;DHT22;10525;50.154;8.198;2022-12-07T07:11:10;2.70;99.90
20728;DHT22;10525;50.154;8.198;2022-12-07T07:13:37;2.70;99.90
20728;DHT22;10525;50.154;8.198;2022-12-07T07:16:04;2.70;99.90
20728;DHT22;10525;50.154;8.198;2022-12-07T07:18:31;2.70;99.90
20728;DHT22;10525;50.154;8.198;2022-12-07T07:20:58;2.70;99.90
20728;DHT22;10525;50.154;8.198;2022-12-07T07:23:26;2.70;99.90
20728;DHT22;10525;50.154;8.198;2022-12-07T07:25:53;2.70;99.90
20728;DHT22;10525;50.154;8.198;2022-12-07T07:28:20;2.70;99.90
20728;DHT22;10525;50.154;8.198;2022-12-07T07:30:47;2.60;99.90
20728;DHT22;10525;50.154;8.198;2022-12-07T07:33:14;2.60;99.90
20728;DHT22;10525;50.154;8.198;2022-12-07T07:35:40;2.60;99.90
20728;DHT22;10525;50.154;8.198;2022-12-07T07:38:08;2.60;99.90
20728;DHT22;10525;50.154;8.198;2022-12-07T07:40:36;2.60;99.90
20728;DHT22;10525;50.154;8.198;2022-12-07T07:43:03;2.70;99.90
20728;DHT22;10525;50.154;8.198;2022-12-07T07:45:30;2.80;99.90
20728;DHT22;10525;50.154;8.198;2022-12-07T07:47:57;2.90;99.90
20728;DHT22;10525;50.154;8.198;2022-12-07T07:50:23;2.90;99.90
20728;DHT22;10525;50.154;8.198;2022-12-07T07:52:51;3.00;99.90
20728;DHT22;10525;50.154;8.198;2022-12-07T07:55:18;3.00;99.90
20728;DHT22;10525;50.154;8.198;2022-12-07T07:57:46;3.10;99.90
20728;DHT22;10525;50.154;8.198;2022-12-07T08:00:14;3.00;99.90
20728;DHT22;10525;50.154;8.198;2022-12-07T08:02:41;3.00;99.90
20728;DHT22;10525;50.154;8.198;2022-12-07T08:05:09;3.10;99.90
20728;DHT22;10525;50.154;8.198;2022-12-07T08:07:37;3.10;99.90
20728;DHT22;10525;50.154;8.198;2022-12-07T08:10:05;3.10;99.90
20728;DHT22;10525;50.154;8.198;2022-12-07T08:12:36;3.10;99.90
20728;DHT22;10525;50.154;8.198;2022-12-07T08:15:05;3.10;99.90
20728;DHT22;10525;50.154;8.198;2022-12-07T08:17:33;3.10;99.90
20728;DHT22;10525;50.154;8.198;2022-12-07T08:19:59;3.10;99.90
20728;DHT22;10525;50.154;8.198;2022-12-07T08:22:26;3.10;99.90
20728;DHT22;10525;50.154;8.198;2022-12-07T08:24:53;3.20;99.90
20728;DHT22;10525;50.154;8.198;2022-12-07T08:27:20;3.30;99.90
20728;DHT22;10525;50.154;8.198;2022-12-07T08:29:49;3.40;99.90
20728;DHT22;10525;50.154;8.198;2022-12-07T08:32:17;3.40;99.90
20728;DHT22;10525;50.154;8.198;2022-12-07T08:34:44;3.50;99.90
20728;DHT22;10525;50.154;8.198;2022-12-07T08:37:11;3.50;99.90
20728;DHT22;10525;50.154;8.198;2022-12-07T08:39:37;3.50;99.90
20728;DHT22;10525;50.154;8.198;2022-12-07T08:42:04;3.50;99.90
20728;DHT22;10525;50.154;8.198;2022-12-07T08:44:31;3.50;99.90
20728;DHT22;10525;50.154;8.198;2022-12-07T08:47:00;3.40;99.90
20728;DHT22;10525;50.154;8.198;2022-12-07T08:49:32;3.50;99.90
20728;DHT22;10525;50.154;8.198;2022-12-07T08:52:00;3.50;99.90
20728;DHT22;10525;50.154;8.198;2022-12-07T08:54:28;3.60;99.90
20728;DHT22;10525;50.154;8.198;2022-12-07T08:56:55;3.60;99.90
20728;DHT22;10525;50.154;8.198;2022-12-07T08:59:23;3.60;99.90
20728;DHT22;10525;50.154;8.198;2022-12-07T09:01:49;3.60;99.90
20728;DHT22;10525;50.154;8.198;2022-12-07T09:04:16;3.70;99.90
20728;DHT22;10525;50.154;8.198;2022-12-07T09:06:44;3.70;99.90
20728;DHT22;10525;50.154;8.198;2022-12-07T09:09:11;3.80;99.90
20728;DHT22;10525;50.154;8.198;2022-12-07T09:11:40;3.90;99.90
20728;DHT22;10525;50.154;8.198;2022-12-07T09:14:06;3.90;99.90
20728;DHT22;10525;50.154;8.198;2022-12-07T09:16:33;4.00;99.90
20728;DHT22;10525;50.154;8.198;2022-12-07T09:19:00;3.90;99.90
20728;DHT22;10525;50.154;8.198;2022-12-07T09:21:26;3.90;99.90
20728;DHT22;10525;50.154;8.198;2022-12-07T09:23:54;3.90;99.90
20728;DHT22;10525;50.154;8.198;2022-12-07T09:26:21;4.00;99.90
20728;DHT22;10525;50.154;8.198;2022-12-07T09:28:48;4.00;99.90
20728;DHT22;10525;50.154;8.198;2022-12-07T09:31:15;4.00;99.90
20728;DHT22;10525;50.154;8.198;2022-12-07T09:33:41;3.90;99.90
20728;DHT22;10525;50.154;8.198;2022-12-07T09:36:08;4.00;99.90
20728;DHT22;10525;50.154;8.198;2022-12-07T09:38:35;4.00;99.90
20728;DHT22;10525;50.154;8.198;2022-12-07T09:41:06;4.00;99.90
20728;DHT22;10525;50.154;8.198;2022-12-07T09:43:34;3.80;99.90
20728;DHT22;10525;50.154;8.198;2022-12-07T09:46:02;4.00;99.90
20728;DHT22;10525;50.154;8.198;2022-12-07T09:48:31;3.90;99.90
20728;DHT22;10525;50.154;8.198;2022-12-07T09:51:00;3.90;99.90
20728;DHT22;10525;50.154;8.198;2022-12-07T09:53:30;4.00;99.90
20728;DHT22;10525;50.154;8.198;2022-12-07T09:55:59;4.10;99.90
20728;DHT22;10525;50.154;8.198;2022-12-07T09:58:29;4.10;99.90
20728;DHT22;10525;50.154;8.198;2022-12-07T10:00:58;4.10;99.90
20728;DHT22;10525;50.154;8.198;2022-12-07T10:03:26;4.30;99.90
20728;DHT22;10525;50.154;8.198;2022-12-07T10:05:54;4.30;99.90
20728;DHT22;10525;50.154;8.198;2022-12-07T10:08:21;4.30;99.90
20728;DHT22;10525;50.154;8.198;2022-12-07T10:10:50;4.30;99.90
20728;DHT22;10525;50.154;8.198;2022-12-07T10:13:20;4.30;99.90
20728;DHT22;10525;50.154;8.198;2022-12-07T10:15:51;4.50;99.90
20728;DHT22;10525;50.154;8.198;2022-12-07T10:18:30;4.70;99.90
20728;DHT22;10525;50.154;8.198;2022-12-07T10:21:02;4.60;99.90
20728;DHT22;10525;50.154;8.198;2022-12-07T10:23:29;4.70;99.90
20728;DHT22;10525;50.154;8.198;2022-12-07T10:25:56;4.80;99.90
20728;DHT22;10525;50.154;8.198;2022-12-07T10:28:25;4.80;99.90
20728;DHT22;10525;50.154;8.198;2022-12-07T10:31:00;5.00;99.90
20728;DHT22;10525;50.154;8.198;2022-12-07T10:33:31;5.00;99.90
20728;DHT22;10525;50.154;8.198;2022-12-07T10:35:59;5.30;99.90
20728;DHT22;10525;50.154;8.198;2022-12-07T10:38:26;5.20;99.90
20728;DHT22;10525;50.154;8.198;2022-12-07T10:41:04;5.30;99.90
20728;DHT22;10525;50.154;8.198;2022-12-07T10:43:31;5.10;99.90
20728;DHT22;10525;50.154;8.198;2022-12-07T10:49:38;4.60;99.90
20728;DHT22;10525;50.154;8.198;2022-12-07T10:52:15;4.70;99.90
20728;DHT22;10525;50.154;8.198;2022-12-07T10:54:49;4.80;99.90
20728;DHT22;10525;50.154;8.198;2022-12-07T10:57:28;4.90;99.90
20728;DHT22;10525;50.154;8.198;2022-12-07T11:00:04;5.00;99.90
20728;DHT22;10525;50.154;8.198;2022-12-07T11:05:54;4.70;99.90
20728;DHT22;10525;50.154;8.198;2022-12-07T11:08:31;4.70;99.90
20728;DHT22;10525;50.154;8.198;2022-12-07T11:11:06;4.70;99.90
20728;DHT22;10525;50.154;8.198;2022-12-07T11:13:43;4.70;99.90
20728;DHT22;10525;50.154;8.198;2022-12-07T11:16:21;4.80;99.90
20728;DHT22;10525;50.154;8.198;2022-12-07T11:18:59;4.90;99.90
20728;DHT22;10525;50.154;8.198;2022-12-07T11:21:36;4.80;99.90
20728;DHT22;10525;50.154;8.198;2022-12-07T11:24:12;4.80;99.90
20728;DHT22;10525;50.154;8.198;2022-12-07T11:27:00;4.70;99.90
20728;DHT22;10525;50.154;8.198;2022-12-07T11:35:38;4.30;99.90
20728;DHT22;10525;50.154;8.198;2022-12-07T11:38:12;4.10;99.90
20728;DHT22;10525;50.154;8.198;2022-12-07T11:40:43;4.10;99.90
20728;DHT22;10525;50.154;8.198;2022-12-07T11:43:18;4.30;99.90
20728;DHT22;10525;50.154;8.198;2022-12-07T11:45:50;4.40;99.90
20728;DHT22;10525;50.154;8.198;2022-12-07T11:48:24;4.70;99.90
20728;DHT22;10525;50.154;8.198;2022-12-07T11:50:53;4.90;99.90
20728;DHT22;10525;50.154;8.198;2022-12-07T11:53:26;5.20;99.90
20728;DHT22;10525;50.154;8.198;2022-12-07T11:55:57;5.20;99.90
20728;DHT22;10525;50.154;8.198;2022-12-07T11:58:39;5.10;99.90
20728;DHT22;10525;50.154;8.198;2022-12-07T12:01:15;5.00;99.90
20728;DHT22;10525;50.154;8.198;2022-12-07T12:03:47;4.80;99.90
20728;DHT22;10525;50.154;8.198;2022-12-07T12:06:15;4.80;99.90
20728;DHT22;10525;50.154;8.198;2022-12-07T12:08:46;4.80;99.90
20728;DHT22;10525;50.154;8.198;2022-12-07T12:11:25;4.80;99.90
20728;DHT22;10525;50.154;8.198;2022-12-07T12:14:14;4.80;99.90
20728;DHT22;10525;50.154;8.198;2022-12-07T12:19:42;4.70;99.90
20728;DHT22;10525;50.154;8.198;2022-12-07T12:22:14;4.70;99.90
20728;DHT22;10525;50.154;8.198;2022-12-07T12:24:44;4.70;99.90
20728;DHT22;10525;50.154;8.198;2022-12-07T12:27:19;4.80;99.90
20728;DHT22;10525;50.154;8.198;2022-12-07T12:29:53;5.10;99.90
20728;DHT22;10525;50.154;8.198;2022-12-07T12:32:22;5.30;99.90
20728;DHT22;10525;50.154;8.198;2022-12-07T12:35:17;5.50;99.90
20728;DHT22;10525;50.154;8.198;2022-12-07T12:37:47;5.60;99.90
20728;DHT22;10525;50.154;8.198;2022-12-07T12:40:46;5.80;99.90
20728;DHT22;10525;50.154;8.198;2022-12-07T12:43:50;5.60;99.90
20728;DHT22;10525;50.154;8.198;2022-12-07T12:46:37;5.60;99.90
20728;DHT22;10525;50.154;8.198;2022-12-07T12:49:35;5.70;99.90
20728;DHT22;10525;50.154;8.198;2022-12-07T12:55:15;5.60;99.90
20728;DHT22;10525;50.154;8.198;2022-12-07T12:57:47;5.50;99.90
20728;DHT22;10525;50.154;8.198;2022-12-07T13:00:18;5.30;99.90
20728;DHT22;10525;50.154;8.198;2022-12-07T13:02:49;5.30;99.90
20728;DHT22;10525;50.154;8.198;2022-12-07T13:05:19;5.10;99.90
20728;DHT22;10525;50.154;8.198;2022-12-07T13:07:55;5.10;99.90
20728;DHT22;10525;50.154;8.198;2022-12-07T13:13:32;4.90;99.90
20728;DHT22;10525;50.154;8.198;2022-12-07T13:16:38;4.80;99.90
20728;DHT22;10525;50.154;8.198;2022-12-07T13:22:39;4.70;99.90
20728;DHT22;10525;50.154;8.198;2022-12-07T13:25:10;4.80;99.90
20728;DHT22;10525;50.154;8.198;2022-12-07T13:27:39;4.80;99.90
20728;DHT22;10525;50.154;8.198;2022-12-07T13:30:14;4.80;99.90
20728;DHT22;10525;50.154;8.198;2022-12-07T13:32:41;4.80;99.90
20728;DHT22;10525;50.154;8.198;2022-12-07T13:35:30;4.70;99.90
20728;DHT22;10525;50.154;8.198;2022-12-07T13:37:57;4.50;99.90
20728;DHT22;10525;50.154;8.198;2022-12-07T13:40:24;4.40;99.90
20728;DHT22;10525;50.154;8.198;2022-12-07T13:42:57;4.20;99.90
20728;DHT22;10525;50.154;8.198;2022-12-07T13:45:27;3.90;99.90
20728;DHT22;10525;50.154;8.198;2022-12-07T13:48:12;3.70;99.90
20728;DHT22;10525;50.154;8.198;2022-12-07T13:50:41;3.40;99.90
20728;DHT22;10525;50.154;8.198;2022-12-07T13:53:12;3.50;99.90
20728;DHT22;10525;50.154;8.198;2022-12-07T13:55:45;3.50;99.90
20728;DHT22;10525;50.154;8.198;2022-12-07T13:58:12;3.60;99.90
20728;DHT22;10525;50.154;8.198;2022-12-07T14:00:41;3.70;99.90
20728;DHT22;10525;50.154;8.198;2022-12-07T14:03:26;3.80;99.90
20728;DHT22;10525;50.154;8.198;2022-12-07T14:06:20;3.80;99.90
20728;DHT22;10525;50.154;8.198;2022-12-07T14:08:50;3.90;99.90
20728;DHT22;10525;50.154;8.198;2022-12-07T14:11:19;3.80;99.90
20728;DHT22;10525;50.154;8.198;2022-12-07T14:13:58;3.80;99.90
20728;DHT22;10525;50.154;8.198;2022-12-07T14:16:30;3.70;99.90
20728;DHT22;10525;50.154;8.198;2022-12-07T14:18:59;3.70;99.90
20728;DHT22;10525;50.154;8.198;2022-12-07T14:21:28;3.80;99.90
20728;DHT22;10525;50.154;8.198;2022-12-07T14:24:15;3.80;99.90
20728;DHT22;10525;50.154;8.198;2022-12-07T14:26:43;3.90;99.90
20728;DHT22;10525;50.154;8.198;2022-12-07T14:29:30;3.90;99.90
20728;DHT22;10525;50.154;8.198;2022-12-07T14:32:14;3.90;99.90
20728;DHT22;10525;50.154;8.198;2022-12-07T14:35:02;3.90;99.90
20728;DHT22;10525;50.154;8.198;2022-12-07T14:37:30;4.00;99.90
20728;DHT22;10525;50.154;8.198;2022-12-07T14:39:57;3.90;99.90
20728;DHT22;10525;50.154;8.198;2022-12-07T14:42:26;3.90;99.90
20728;DHT22;10525;50.154;8.198;2022-12-07T14:44:54;3.70;99.90
20728;DHT22;10525;50.154;8.198;2022-12-07T14:47:23;3.60;99.90
20728;DHT22;10525;50.154;8.198;2022-12-07T14:49:49;3.50;99.90
20728;DHT22;10525;50.154;8.198;2022-12-07T14:52:18;3.50;99.90
20728;DHT22;10525;50.154;8.198;2022-12-07T14:54:46;3.40;99.90
20728;DHT22;10525;50.154;8.198;2022-12-07T14:57:12;3.40;99.90
20728;DHT22;10525;50.154;8.198;2022-12-07T14:59:39;3.40;99.90
20728;DHT22;10525;50.154;8.198;2022-12-07T15:02:09;3.40;99.90
20728;DHT22;10525;50.154;8.198;2022-12-07T15:04:38;3.40;99.90
20728;DHT22;10525;50.154;8.198;2022-12-07T15:07:06;3.40;99.90
20728;DHT22;10525;50.154;8.198;2022-12-07T15:09:35;3.40;99.90
20728;DHT22;10525;50.154;8.198;2022-12-07T15:12:02;3.40;99.90
20728;DHT22;10525;50.154;8.198;2022-12-07T15:14:29;3.40;99.90
20728;DHT22;10525;50.154;8.198;2022-12-07T15:16:56;3.40;99.90
20728;DHT22;10525;50.154;8.198;2022-12-07T15:19:24;3.40;99.90
20728;DHT22;10525;50.154;8.198;2022-12-07T15:21:53;3.40;99.90
20728;DHT22;10525;50.154;8.198;2022-12-07T15:24:20;3.30;99.90
20728;DHT22;10525;50.154;8.198;2022-12-07T15:26:48;3.30;99.90
20728;DHT22;10525;50.154;8.198;2022-12-07T15:29:15;3.30;99.90
20728;DHT22;10525;50.154;8.198;2022-12-07T15:31:42;3.30;99.90
20728;DHT22;10525;50.154;8.198;2022-12-07T15:34:09;3.30;99.90
20728;DHT22;10525;50.154;8.198;2022-12-07T15:36:36;3.40;99.90
20728;DHT22;10525;50.154;8.198;2022-12-07T15:39:04;3.30;99.90
20728;DHT22;10525;50.154;8.198;2022-12-07T15:41:31;3.30;99.90
20728;DHT22;10525;50.154;8.198;2022-12-07T15:43:57;3.30;99.90
20728;DHT22;10525;50.154;8.198;2022-12-07T15:46:42;3.10;99.90
20728;DHT22;10525;50.154;8.198;2022-12-07T15:49:11;3.00;99.90
20728;DHT22;10525;50.154;8.198;2022-12-07T15:51:38;3.00;99.90
20728;DHT22;10525;50.154;8.198;2022-12-07T15:54:06;3.00;99.90
20728;DHT22;10525;50.154;8.198;2022-12-07T15:56:33;2.90;99.90
20728;DHT22;10525;50.154;8.198;2022-12-07T15:59:00;2.90;99.90
20728;DHT22;10525;50.154;8.198;2022-12-07T16:01:27;3.00;99.90
20728;DHT22;10525;50.154;8.198;2022-12-07T16:03:53;3.00;99.90
20728;DHT22;10525;50.154;8.198;2022-12-07T16:06:20;2.90;99.90
20728;DHT22;10525;50.154;8.198;2022-12-07T16:08:47;2.90;99.90
20728;DHT22;10525;50.154;8.198;2022-12-07T16:11:15;2.90;99.90
20728;DHT22;10525;50.154;8.198;2022-12-07T16:13:42;2.80;99.90
20728;DHT22;10525;50.154;8.198;2022-12-07T16:16:11;2.70;99.90
20728;DHT22;10525;50.154;8.198;2022-12-07T16:18:38;2.60;99.90
20728;DHT22;10525;50.154;8.198;2022-12-07T16:21:05;2.60;99.90
20728;DHT22;10525;50.154;8.198;2022-12-07T16:23:32;2.50;99.90
20728;DHT22;10525;50.154;8.198;2022-12-07T16:26:06;2.40;99.90
20728;DHT22;10525;50.154;8.198;2022-12-07T16:28:35;2.40;99.90